< < Back
Terminal Aerodrome Forecast


Current Version              Previous Versions:   1  2  3  4  5  6  7  8  9  

Terminal Aerodrome Forecast

943
FTUS44 KBMX 231700
TAFTCL
TAF
KTCL 231720Z 2318/2418 35004KT P6SM SCT250=

Latest METAR

891
SAUS70 KWBC 231900
MTRTCL
METAR KTCL 231853Z VRB04KT 10SM CLR 22/05 A3009 RMK AO2 SLP189
T02170050


USA.gov is the U.S. government's official web portal to all federal, state and local government web resources and services.